sensor_id;sensor_type;location;lat;lon;timestamp;P1;durP1;ratioP1;P2;durP2;ratioP2
13090;SDS011;6611;52.604;13.438;2023-06-19T00:00:00;6.77;;;6.17;;
13090;SDS011;6611;52.604;13.438;2023-06-19T00:05:07;6.97;;;6.27;;
13090;SDS011;6611;52.604;13.438;2023-06-19T00:10:11;6.87;;;6.27;;
13090;SDS011;6611;52.604;13.438;2023-06-19T00:15:13;7.97;;;7.17;;
13090;SDS011;6611;52.604;13.438;2023-06-19T00:20:15;7.63;;;6.20;;
13090;SDS011;6611;52.604;13.438;2023-06-19T00:25:19;7.00;;;6.30;;
13090;SDS011;6611;52.604;13.438;2023-06-19T00:30:21;6.83;;;6.17;;
13090;SDS011;6611;52.604;13.438;2023-06-19T00:35:23;6.90;;;6.20;;
13090;SDS011;6611;52.604;13.438;2023-06-19T00:40:27;8.63;;;6.47;;
13090;SDS011;6611;52.604;13.438;2023-06-19T00:45:30;9.73;;;7.37;;
13090;SDS011;6611;52.604;13.438;2023-06-19T00:50:32;8.23;;;7.40;;
13090;SDS011;6611;52.604;13.438;2023-06-19T00:55:35;7.63;;;6.63;;
13090;SDS011;6611;52.604;13.438;2023-06-19T01:00:38;7.23;;;6.40;;
13090;SDS011;6611;52.604;13.438;2023-06-19T01:05:40;7.40;;;6.70;;
13090;SDS011;6611;52.604;13.438;2023-06-19T01:10:44;8.50;;;7.07;;
13090;SDS011;6611;52.604;13.438;2023-06-19T01:15:50;7.40;;;6.63;;
13090;SDS011;6611;52.604;13.438;2023-06-19T01:20:53;8.47;;;7.67;;
13090;SDS011;6611;52.604;13.438;2023-06-19T01:25:56;7.80;;;7.00;;
13090;SDS011;6611;52.604;13.438;2023-06-19T01:30:58;8.13;;;7.23;;
13090;SDS011;6611;52.604;13.438;2023-06-19T01:36:02;8.27;;;7.47;;
13090;SDS011;6611;52.604;13.438;2023-06-19T01:41:06;10.00;;;7.20;;
13090;SDS011;6611;52.604;13.438;2023-06-19T01:46:09;7.60;;;6.80;;
13090;SDS011;6611;52.604;13.438;2023-06-19T01:51:11;8.30;;;7.40;;
13090;SDS011;6611;52.604;13.438;2023-06-19T01:56:13;8.97;;;8.07;;
13090;SDS011;6611;52.604;13.438;2023-06-19T02:01:16;9.10;;;7.90;;
13090;SDS011;6611;52.604;13.438;2023-06-19T02:06:17;9.40;;;8.10;;
13090;SDS011;6611;52.604;13.438;2023-06-19T02:11:20;7.90;;;7.10;;
13090;SDS011;6611;52.604;13.438;2023-06-19T02:16:22;9.40;;;8.40;;
13090;SDS011;6611;52.604;13.438;2023-06-19T02:21:23;10.53;;;8.63;;
13090;SDS011;6611;52.604;13.438;2023-06-19T02:26:27;9.10;;;8.20;;
13090;SDS011;6611;52.604;13.438;2023-06-19T02:31:29;8.80;;;7.90;;
13090;SDS011;6611;52.604;13.438;2023-06-19T02:36:31;8.53;;;7.67;;
13090;SDS011;6611;52.604;13.438;2023-06-19T02:41:34;8.97;;;7.97;;
13090;SDS011;6611;52.604;13.438;2023-06-19T02:46:36;8.80;;;7.90;;
13090;SDS011;6611;52.604;13.438;2023-06-19T02:51:37;9.77;;;8.27;;
13090;SDS011;6611;52.604;13.438;2023-06-19T02:56:40;8.57;;;7.77;;
13090;SDS011;6611;52.604;13.438;2023-06-19T03:01:42;10.77;;;8.33;;
13090;SDS011;6611;52.604;13.438;2023-06-19T03:06:43;9.47;;;8.53;;
13090;SDS011;6611;52.604;13.438;2023-06-19T03:11:46;9.23;;;8.33;;
13090;SDS011;6611;52.604;13.438;2023-06-19T03:16:48;8.90;;;8.00;;
13090;SDS011;6611;52.604;13.438;2023-06-19T03:21:50;10.87;;;8.80;;
13090;SDS011;6611;52.604;13.438;2023-06-19T03:26:53;10.10;;;9.10;;
13090;SDS011;6611;52.604;13.438;2023-06-19T03:31:54;9.17;;;8.23;;
13090;SDS011;6611;52.604;13.438;2023-06-19T03:36:56;10.47;;;9.47;;
13090;SDS011;6611;52.604;13.438;2023-06-19T03:41:59;11.20;;;9.60;;
13090;SDS011;6611;52.604;13.438;2023-06-19T03:47:01;10.80;;;9.70;;
13090;SDS011;6611;52.604;13.438;2023-06-19T03:52:03;9.50;;;8.50;;
13090;SDS011;6611;52.604;13.438;2023-06-19T03:57:06;9.37;;;8.43;;
13090;SDS011;6611;52.604;13.438;2023-06-19T04:02:09;8.43;;;7.60;;
13090;SDS011;6611;52.604;13.438;2023-06-19T04:07:10;10.67;;;9.57;;
13090;SDS011;6611;52.604;13.438;2023-06-19T04:12:13;10.10;;;9.10;;
13090;SDS011;6611;52.604;13.438;2023-06-19T04:17:15;9.67;;;8.77;;
13090;SDS011;6611;52.604;13.438;2023-06-19T04:22:17;10.47;;;9.43;;
13090;SDS011;6611;52.604;13.438;2023-06-19T04:27:19;11.30;;;9.63;;
13090;SDS011;6611;52.604;13.438;2023-06-19T04:32:21;10.83;;;9.67;;
13090;SDS011;6611;52.604;13.438;2023-06-19T04:37:23;11.47;;;10.30;;
13090;SDS011;6611;52.604;13.438;2023-06-19T04:42:26;10.27;;;9.27;;
13090;SDS011;6611;52.604;13.438;2023-06-19T04:47:28;10.97;;;9.80;;
13090;SDS011;6611;52.604;13.438;2023-06-19T04:52:29;11.57;;;10.37;;
13090;SDS011;6611;52.604;13.438;2023-06-19T04:57:34;10.40;;;9.30;;
13090;SDS011;6611;52.604;13.438;2023-06-19T05:02:36;11.50;;;10.30;;
13090;SDS011;6611;52.604;13.438;2023-06-19T05:07:38;11.20;;;10.03;;
13090;SDS011;6611;52.604;13.438;2023-06-19T05:12:41;11.20;;;10.10;;
13090;SDS011;6611;52.604;13.438;2023-06-19T05:17:43;11.23;;;10.13;;
13090;SDS011;6611;52.604;13.438;2023-06-19T05:22:46;12.10;;;10.80;;
13090;SDS011;6611;52.604;13.438;2023-06-19T05:27:49;11.23;;;10.13;;
13090;SDS011;6611;52.604;13.438;2023-06-19T05:32:50;11.70;;;10.50;;
13090;SDS011;6611;52.604;13.438;2023-06-19T05:37:52;11.33;;;10.23;;
13090;SDS011;6611;52.604;13.438;2023-06-19T05:42:55;11.83;;;10.63;;
13090;SDS011;6611;52.604;13.438;2023-06-19T05:47:57;12.27;;;10.83;;
13090;SDS011;6611;52.604;13.438;2023-06-19T05:52:58;12.33;;;11.20;;
13090;SDS011;6611;52.604;13.438;2023-06-19T05:58:01;11.93;;;10.73;;
13090;SDS011;6611;52.604;13.438;2023-06-19T06:03:04;13.77;;;11.57;;
13090;SDS011;6611;52.604;13.438;2023-06-19T06:08:05;12.17;;;10.93;;
13090;SDS011;6611;52.604;13.438;2023-06-19T06:13:08;12.83;;;10.73;;
13090;SDS011;6611;52.604;13.438;2023-06-19T06:18:10;12.23;;;11.03;;
13090;SDS011;6611;52.604;13.438;2023-06-19T06:23:12;14.47;;;10.57;;
13090;SDS011;6611;52.604;13.438;2023-06-19T06:28:15;12.67;;;10.87;;
13090;SDS011;6611;52.604;13.438;2023-06-19T06:33:17;13.33;;;10.67;;
13090;SDS011;6611;52.604;13.438;2023-06-19T06:38:19;11.33;;;10.23;;
13090;SDS011;6611;52.604;13.438;2023-06-19T06:43:22;12.00;;;10.33;;
13090;SDS011;6611;52.604;13.438;2023-06-19T06:48:23;12.20;;;10.90;;
13090;SDS011;6611;52.604;13.438;2023-06-19T06:53:25;12.53;;;11.23;;
13090;SDS011;6611;52.604;13.438;2023-06-19T06:58:29;11.47;;;10.27;;
13090;SDS011;6611;52.604;13.438;2023-06-19T07:03:31;10.73;;;9.63;;
13090;SDS011;6611;52.604;13.438;2023-06-19T07:08:32;11.43;;;10.23;;
13090;SDS011;6611;52.604;13.438;2023-06-19T07:13:35;11.33;;;10.13;;
13090;SDS011;6611;52.604;13.438;2023-06-19T07:18:37;10.70;;;9.60;;
13090;SDS011;6611;52.604;13.438;2023-06-19T07:23:41;10.87;;;9.77;;
13090;SDS011;6611;52.604;13.438;2023-06-19T07:28:47;9.83;;;8.93;;
13090;SDS011;6611;52.604;13.438;2023-06-19T07:33:49;10.47;;;9.37;;
13090;SDS011;6611;52.604;13.438;2023-06-19T07:38:51;11.37;;;9.90;;
13090;SDS011;6611;52.604;13.438;2023-06-19T07:43:55;11.53;;;9.70;;
13090;SDS011;6611;52.604;13.438;2023-06-19T07:48:56;10.37;;;9.37;;
13090;SDS011;6611;52.604;13.438;2023-06-19T07:53:58;9.97;;;8.63;;
13090;SDS011;6611;52.604;13.438;2023-06-19T07:59:01;10.00;;;9.00;;
13090;SDS011;6611;52.604;13.438;2023-06-19T08:04:03;9.60;;;8.70;;
13090;SDS011;6611;52.604;13.438;2023-06-19T08:09:05;9.30;;;8.40;;
13090;SDS011;6611;52.604;13.438;2023-06-19T08:14:08;10.20;;;9.20;;
13090;SDS011;6611;52.604;13.438;2023-06-19T08:19:09;10.23;;;9.10;;
13090;SDS011;6611;52.604;13.438;2023-06-19T08:24:11;9.60;;;8.70;;
13090;SDS011;6611;52.604;13.438;2023-06-19T08:29:14;9.47;;;8.57;;
13090;SDS011;6611;52.604;13.438;2023-06-19T08:34:16;10.13;;;9.07;;
13090;SDS011;6611;52.604;13.438;2023-06-19T08:39:17;10.03;;;9.03;;
13090;SDS011;6611;52.604;13.438;2023-06-19T08:44:21;10.10;;;9.07;;
13090;SDS011;6611;52.604;13.438;2023-06-19T08:49:23;9.60;;;8.70;;
13090;SDS011;6611;52.604;13.438;2023-06-19T08:54:25;10.20;;;9.10;;
13090;SDS011;6611;52.604;13.438;2023-06-19T08:59:28;9.63;;;8.70;;
13090;SDS011;6611;52.604;13.438;2023-06-19T09:04:31;10.33;;;9.33;;
13090;SDS011;6611;52.604;13.438;2023-06-19T09:09:33;10.23;;;9.20;;
13090;SDS011;6611;52.604;13.438;2023-06-19T09:14:37;10.17;;;8.67;;
13090;SDS011;6611;52.604;13.438;2023-06-19T09:19:46;9.37;;;8.57;;
13090;SDS011;6611;52.604;13.438;2023-06-19T09:24:49;10.30;;;9.23;;
13090;SDS011;6611;52.604;13.438;2023-06-19T09:29:52;10.97;;;9.27;;
13090;SDS011;6611;52.604;13.438;2023-06-19T09:34:54;10.43;;;9.20;;
13090;SDS011;6611;52.604;13.438;2023-06-19T09:39:58;8.73;;;7.93;;
13090;SDS011;6611;52.604;13.438;2023-06-19T09:45:04;10.60;;;9.50;;
13090;SDS011;6611;52.604;13.438;2023-06-19T09:50:08;9.80;;;8.90;;
13090;SDS011;6611;52.604;13.438;2023-06-19T09:55:13;10.30;;;9.20;;
13090;SDS011;6611;52.604;13.438;2023-06-19T10:00:16;10.57;;;9.47;;
13090;SDS011;6611;52.604;13.438;2023-06-19T10:05:27;9.70;;;8.73;;
13090;SDS011;6611;52.604;13.438;2023-06-19T10:10:30;11.23;;;9.80;;
13090;SDS011;6611;52.604;13.438;2023-06-19T10:15:33;9.90;;;8.93;;
13090;SDS011;6611;52.604;13.438;2023-06-19T10:20:37;11.47;;;9.40;;
13090;SDS011;6611;52.604;13.438;2023-06-19T10:25:39;10.40;;;9.33;;
13090;SDS011;6611;52.604;13.438;2023-06-19T10:30:44;10.03;;;9.13;;
13090;SDS011;6611;52.604;13.438;2023-06-19T10:35:46;11.65;;;10.45;;
13090;SDS011;6611;52.604;13.438;2023-06-19T10:40:48;10.65;;;9.63;;
13090;SDS011;6611;52.604;13.438;2023-06-19T10:45:51;10.05;;;9.10;;
13090;SDS011;6611;52.604;13.438;2023-06-19T10:50:53;9.82;;;8.93;;
13090;SDS011;6611;52.604;13.438;2023-06-19T10:55:58;10.50;;;9.50;;
13090;SDS011;6611;52.604;13.438;2023-06-19T11:01:02;10.27;;;9.27;;
13090;SDS011;6611;52.604;13.438;2023-06-19T11:06:03;10.43;;;9.43;;
13090;SDS011;6611;52.604;13.438;2023-06-19T11:11:05;10.43;;;9.40;;
13090;SDS011;6611;52.604;13.438;2023-06-19T11:16:09;10.15;;;9.15;;
13090;SDS011;6611;52.604;13.438;2023-06-19T11:21:11;10.65;;;9.65;;
13090;SDS011;6611;52.604;13.438;2023-06-19T11:26:12;10.68;;;9.55;;
13090;SDS011;6611;52.604;13.438;2023-06-19T11:31:17;10.60;;;9.20;;
13090;SDS011;6611;52.604;13.438;2023-06-19T11:36:26;10.85;;;9.80;;
13090;SDS011;6611;52.604;13.438;2023-06-19T11:41:28;9.80;;;8.48;;
13090;SDS011;6611;52.604;13.438;2023-06-19T11:46:32;9.05;;;8.15;;
13090;SDS011;6611;52.604;13.438;2023-06-19T11:51:34;9.48;;;8.57;;
13090;SDS011;6611;52.604;13.438;2023-06-19T11:56:36;9.73;;;8.77;;
13090;SDS011;6611;52.604;13.438;2023-06-19T12:01:40;8.05;;;7.35;;
13090;SDS011;6611;52.604;13.438;2023-06-19T12:06:41;8.40;;;7.35;;
13090;SDS011;6611;52.604;13.438;2023-06-19T12:11:43;9.27;;;8.38;;
13090;SDS011;6611;52.604;13.438;2023-06-19T12:16:46;8.57;;;7.60;;
13090;SDS011;6611;52.604;13.438;2023-06-19T12:21:48;14.35;;;7.80;;
13090;SDS011;6611;52.604;13.438;2023-06-19T12:26:49;10.82;;;8.35;;
13090;SDS011;6611;52.604;13.438;2023-06-19T12:31:58;7.55;;;6.85;;
13090;SDS011;6611;52.604;13.438;2023-06-19T12:37:01;9.07;;;8.18;;
13090;SDS011;6611;52.604;13.438;2023-06-19T12:42:03;9.15;;;8.25;;
13090;SDS011;6611;52.604;13.438;2023-06-19T12:47:06;8.30;;;7.38;;
13090;SDS011;6611;52.604;13.438;2023-06-19T12:52:09;8.57;;;7.53;;
13090;SDS011;6611;52.604;13.438;2023-06-19T12:57:10;8.02;;;7.22;;
13090;SDS011;6611;52.604;13.438;2023-06-19T13:02:13;8.10;;;7.28;;
13090;SDS011;6611;52.604;13.438;2023-06-19T13:07:15;8.43;;;7.18;;
13090;SDS011;6611;52.604;13.438;2023-06-19T13:12:17;8.57;;;6.88;;
13090;SDS011;6611;52.604;13.438;2023-06-19T13:17:20;7.60;;;6.85;;
13090;SDS011;6611;52.604;13.438;2023-06-19T13:22:21;6.70;;;6.10;;
13090;SDS011;6611;52.604;13.438;2023-06-19T13:27:23;6.78;;;5.75;;
13090;SDS011;6611;52.604;13.438;2023-06-19T13:32:26;6.50;;;5.80;;
13090;SDS011;6611;52.604;13.438;2023-06-19T13:37:28;6.97;;;6.25;;
13090;SDS011;6611;52.604;13.438;2023-06-19T13:42:30;6.97;;;6.28;;
13090;SDS011;6611;52.604;13.438;2023-06-19T13:47:33;7.20;;;6.50;;
13090;SDS011;6611;52.604;13.438;2023-06-19T13:52:35;7.22;;;6.53;;
13090;SDS011;6611;52.604;13.438;2023-06-19T13:57:37;7.63;;;6.75;;
13090;SDS011;6611;52.604;13.438;2023-06-19T14:02:41;7.70;;;6.93;;
13090;SDS011;6611;52.604;13.438;2023-06-19T14:07:43;8.15;;;7.35;;
13090;SDS011;6611;52.604;13.438;2023-06-19T14:12:45;8.90;;;8.00;;
13090;SDS011;6611;52.604;13.438;2023-06-19T14:17:48;7.53;;;6.65;;
13090;SDS011;6611;52.604;13.438;2023-06-19T14:22:49;7.38;;;6.68;;
13090;SDS011;6611;52.604;13.438;2023-06-19T14:27:51;8.43;;;7.47;;
13090;SDS011;6611;52.604;13.438;2023-06-19T14:32:54;8.55;;;7.43;;
13090;SDS011;6611;52.604;13.438;2023-06-19T14:37:55;7.85;;;7.05;;
13090;SDS011;6611;52.604;13.438;2023-06-19T14:42:57;7.28;;;6.57;;
13090;SDS011;6611;52.604;13.438;2023-06-19T14:48:00;7.57;;;6.88;;
13090;SDS011;6611;52.604;13.438;2023-06-19T14:53:02;7.65;;;6.90;;
13090;SDS011;6611;52.604;13.438;2023-06-19T14:58:04;7.80;;;7.07;;
13090;SDS011;6611;52.604;13.438;2023-06-19T15:03:08;7.93;;;7.15;;
13090;SDS011;6611;52.604;13.438;2023-06-19T15:08:09;8.48;;;7.68;;
13090;SDS011;6611;52.604;13.438;2023-06-19T15:13:11;9.27;;;7.75;;
13090;SDS011;6611;52.604;13.438;2023-06-19T15:18:14;8.68;;;7.82;;
13090;SDS011;6611;52.604;13.438;2023-06-19T15:23:16;9.25;;;7.80;;
13090;SDS011;6611;52.604;13.438;2023-06-19T15:28:17;8.38;;;7.57;;
13090;SDS011;6611;52.604;13.438;2023-06-19T15:33:20;9.30;;;8.05;;
13090;SDS011;6611;52.604;13.438;2023-06-19T15:38:22;9.25;;;8.35;;
13090;SDS011;6611;52.604;13.438;2023-06-19T15:43:24;11.10;;;7.82;;
13090;SDS011;6611;52.604;13.438;2023-06-19T15:48:30;8.40;;;7.57;;
13090;SDS011;6611;52.604;13.438;2023-06-19T15:53:31;9.57;;;8.77;;
13090;SDS011;6611;52.604;13.438;2023-06-19T15:58:33;9.15;;;8.35;;
13090;SDS011;6611;52.604;13.438;2023-06-19T16:03:36;8.88;;;8.07;;
13090;SDS011;6611;52.604;13.438;2023-06-19T16:08:37;12.00;;;9.07;;
13090;SDS011;6611;52.604;13.438;2023-06-19T16:13:39;11.15;;;8.77;;
13090;SDS011;6611;52.604;13.438;2023-06-19T16:18:42;9.23;;;8.32;;
13090;SDS011;6611;52.604;13.438;2023-06-19T16:23:44;9.93;;;8.60;;
13090;SDS011;6611;52.604;13.438;2023-06-19T16:28:45;9.80;;;8.80;;
13090;SDS011;6611;52.604;13.438;2023-06-19T16:33:48;9.77;;;8.77;;
13090;SDS011;6611;52.604;13.438;2023-06-19T16:38:50;10.13;;;8.88;;
13090;SDS011;6611;52.604;13.438;2023-06-19T16:43:52;10.13;;;9.05;;
13090;SDS011;6611;52.604;13.438;2023-06-19T16:48:55;9.65;;;8.75;;
13090;SDS011;6611;52.604;13.438;2023-06-19T16:53:57;9.65;;;8.73;;
13090;SDS011;6611;52.604;13.438;2023-06-19T16:58:59;9.63;;;8.70;;
13090;SDS011;6611;52.604;13.438;2023-06-19T17:04:03;9.30;;;8.38;;
13090;SDS011;6611;52.604;13.438;2023-06-19T17:09:05;11.98;;;9.55;;
13090;SDS011;6611;52.604;13.438;2023-06-19T17:14:06;10.43;;;9.32;;
13090;SDS011;6611;52.604;13.438;2023-06-19T17:19:09;11.23;;;8.40;;
13090;SDS011;6611;52.604;13.438;2023-06-19T17:24:11;10.27;;;8.25;;
13090;SDS011;6611;52.604;13.438;2023-06-19T17:29:14;10.75;;;8.70;;
13090;SDS011;6611;52.604;13.438;2023-06-19T17:34:17;9.70;;;8.80;;
13090;SDS011;6611;52.604;13.438;2023-06-19T17:39:18;9.70;;;8.70;;
13090;SDS011;6611;52.604;13.438;2023-06-19T17:44:20;9.18;;;8.27;;
13090;SDS011;6611;52.604;13.438;2023-06-19T17:49:26;9.43;;;8.52;;
13090;SDS011;6611;52.604;13.438;2023-06-19T17:54:28;9.95;;;9.05;;
13090;SDS011;6611;52.604;13.438;2023-06-19T17:59:30;9.50;;;8.55;;
13090;SDS011;6611;52.604;13.438;2023-06-19T18:04:33;9.48;;;8.32;;
13090;SDS011;6611;52.604;13.438;2023-06-19T18:09:34;10.02;;;9.02;;
13090;SDS011;6611;52.604;13.438;2023-06-19T18:14:36;9.30;;;8.40;;
13090;SDS011;6611;52.604;13.438;2023-06-19T18:19:39;9.88;;;8.98;;
13090;SDS011;6611;52.604;13.438;2023-06-19T18:24:41;9.85;;;8.60;;
13090;SDS011;6611;52.604;13.438;2023-06-19T18:29:42;9.55;;;8.65;;
13090;SDS011;6611;52.604;13.438;2023-06-19T18:34:45;9.90;;;8.90;;
13090;SDS011;6611;52.604;13.438;2023-06-19T18:39:47;9.98;;;8.98;;
13090;SDS011;6611;52.604;13.438;2023-06-19T18:44:52;11.35;;;9.27;;
13090;SDS011;6611;52.604;13.438;2023-06-19T18:49:55;10.27;;;8.30;;
13090;SDS011;6611;52.604;13.438;2023-06-19T18:54:56;10.45;;;9.45;;
13090;SDS011;6611;52.604;13.438;2023-06-19T18:59:58;10.65;;;9.15;;
13090;SDS011;6611;52.604;13.438;2023-06-19T19:05:01;9.85;;;8.95;;
13090;SDS011;6611;52.604;13.438;2023-06-19T19:10:03;10.38;;;9.27;;
13090;SDS011;6611;52.604;13.438;2023-06-19T19:15:06;10.57;;;9.15;;
13090;SDS011;6611;52.604;13.438;2023-06-19T19:20:10;9.95;;;8.65;;
13090;SDS011;6611;52.604;13.438;2023-06-19T19:25:13;9.73;;;8.75;;
13090;SDS011;6611;52.604;13.438;2023-06-19T19:30:15;10.30;;;9.23;;
13090;SDS011;6611;52.604;13.438;2023-06-19T19:35:18;10.13;;;9.10;;
13090;SDS011;6611;52.604;13.438;2023-06-19T19:40:20;10.70;;;9.60;;
13090;SDS011;6611;52.604;13.438;2023-06-19T19:45:21;10.43;;;9.43;;
13090;SDS011;6611;52.604;13.438;2023-06-19T19:50:24;10.00;;;9.00;;
13090;SDS011;6611;52.604;13.438;2023-06-19T19:55:26;13.00;;;9.50;;
13090;SDS011;6611;52.604;13.438;2023-06-19T20:00:28;10.37;;;9.37;;
13090;SDS011;6611;52.604;13.438;2023-06-19T20:05:31;11.17;;;9.97;;
13090;SDS011;6611;52.604;13.438;2023-06-19T20:10:32;9.93;;;9.00;;
13090;SDS011;6611;52.604;13.438;2023-06-19T20:15:34;10.53;;;9.43;;
13090;SDS011;6611;52.604;13.438;2023-06-19T20:20:37;11.00;;;9.90;;
13090;SDS011;6611;52.604;13.438;2023-06-19T20:25:39;10.83;;;9.77;;
13090;SDS011;6611;52.604;13.438;2023-06-19T20:30:41;10.50;;;9.50;;
13090;SDS011;6611;52.604;13.438;2023-06-19T20:35:44;11.07;;;10.00;;
13090;SDS011;6611;52.604;13.438;2023-06-19T20:40:47;11.27;;;10.17;;
13090;SDS011;6611;52.604;13.438;2023-06-19T20:45:49;11.57;;;10.43;;
13090;SDS011;6611;52.604;13.438;2023-06-19T20:50:52;10.37;;;9.37;;
13090;SDS011;6611;52.604;13.438;2023-06-19T20:55:54;11.13;;;10.03;;
13090;SDS011;6611;52.604;13.438;2023-06-19T21:00:55;11.03;;;9.93;;
13090;SDS011;6611;52.604;13.438;2023-06-19T21:05:59;11.07;;;10.07;;
13090;SDS011;6611;52.604;13.438;2023-06-19T21:11:02;10.77;;;9.77;;
13090;SDS011;6611;52.604;13.438;2023-06-19T21:16:04;11.10;;;10.10;;
13090;SDS011;6611;52.604;13.438;2023-06-19T21:21:07;10.77;;;9.67;;
13090;SDS011;6611;52.604;13.438;2023-06-19T21:26:09;10.80;;;9.70;;
13090;SDS011;6611;52.604;13.438;2023-06-19T21:31:11;11.60;;;10.40;;
13090;SDS011;6611;52.604;13.438;2023-06-19T21:36:14;11.97;;;9.83;;
13090;SDS011;6611;52.604;13.438;2023-06-19T21:41:16;11.23;;;10.13;;
13090;SDS011;6611;52.604;13.438;2023-06-19T21:46:17;12.13;;;10.93;;
13090;SDS011;6611;52.604;13.438;2023-06-19T21:51:21;11.77;;;10.13;;
13090;SDS011;6611;52.604;13.438;2023-06-19T21:56:23;11.57;;;10.00;;
13090;SDS011;6611;52.604;13.438;2023-06-19T22:01:24;10.50;;;9.50;;
13090;SDS011;6611;52.604;13.438;2023-06-19T22:06:27;10.87;;;9.77;;
13090;SDS011;6611;52.604;13.438;2023-06-19T22:11:29;10.43;;;9.20;;
13090;SDS011;6611;52.604;13.438;2023-06-19T22:16:31;10.93;;;9.20;;
13090;SDS011;6611;52.604;13.438;2023-06-19T22:21:34;10.17;;;9.17;;
13090;SDS011;6611;52.604;13.438;2023-06-19T22:26:35;10.20;;;9.10;;
13090;SDS011;6611;52.604;13.438;2023-06-19T22:31:38;10.20;;;9.13;;
13090;SDS011;6611;52.604;13.438;2023-06-19T22:36:41;11.23;;;10.13;;
13090;SDS011;6611;52.604;13.438;2023-06-19T22:41:42;11.37;;;10.20;;
13090;SDS011;6611;52.604;13.438;2023-06-19T22:46:44;13.10;;;9.73;;
13090;SDS011;6611;52.604;13.438;2023-06-19T22:51:47;11.33;;;10.17;;
13090;SDS011;6611;52.604;13.438;2023-06-19T22:56:49;11.10;;;10.00;;
13090;SDS011;6611;52.604;13.438;2023-06-19T23:01:50;12.60;;;10.43;;
13090;SDS011;6611;52.604;13.438;2023-06-19T23:06:53;11.23;;;10.13;;
13090;SDS011;6611;52.604;13.438;2023-06-19T23:11:55;11.67;;;10.47;;
13090;SDS011;6611;52.604;13.438;2023-06-19T23:16:57;11.33;;;10.17;;
13090;SDS011;6611;52.604;13.438;2023-06-19T23:22:00;11.07;;;9.93;;
13090;SDS011;6611;52.604;13.438;2023-06-19T23:27:02;11.60;;;10.40;;
13090;SDS011;6611;52.604;13.438;2023-06-19T23:32:04;11.60;;;10.37;;
13090;SDS011;6611;52.604;13.438;2023-06-19T23:37:07;12.47;;;11.27;;
13090;SDS011;6611;52.604;13.438;2023-06-19T23:42:09;11.73;;;10.60;;
13090;SDS011;6611;52.604;13.438;2023-06-19T23:47:11;11.20;;;10.10;;
13090;SDS011;6611;52.604;13.438;2023-06-19T23:52:14;11.40;;;10.27;;
13090;SDS011;6611;52.604;13.438;2023-06-19T23:57:16;12.90;;;11.60;;
